Time;durP1;ratioP1;P1;durP2;ratioP2;P2;SDS_P1;SDS_P2;PMS_P1;PMS_P2;Temp;Humidity;BMP_temperature;BMP_pressure;BME280_temperature;BME280_humidity;BME280_pressure;Samples;Min_cycle;Max_cycle;Signal;HPM_P1;HPM_P2
2022/07/23 00:02:18;;;;;;;24.48;16.75;;;15.80;99.90;;;;;;7331147;32;20095;-60
2022/07/23 00:06:21;;;;;;;25.12;17.50;;;15.80;99.90;;;;;;7331107;32;20733;-59
2022/07/23 00:10:23;;;;;;;25.90;18.05;;;15.80;99.90;;;;;;7330325;32;20100;-59
2022/07/23 00:14:24;;;;;;;27.67;18.75;;;15.80;99.90;;;;;;7331131;32;20143;-60
2022/07/23 00:18:26;;;;;;;39.75;21.80;;;15.90;99.90;;;;;;7329955;32;20253;-60
2022/07/23 00:22:29;;;;;;;32.22;20.05;;;15.90;99.90;;;;;;7330030;32;20503;-60
2022/07/23 00:26:30;;;;;;;36.00;21.52;;;15.70;99.90;;;;;;7330855;32;20183;-60
2022/07/23 00:30:32;;;;;;;38.40;23.12;;;15.80;99.90;;;;;;7329778;32;20120;-59
2022/07/23 00:34:34;;;;;;;38.00;24.30;;;15.80;99.90;;;;;;7330376;32;20121;-60
2022/07/23 00:38:36;;;;;;;37.70;22.90;;;15.70;99.90;;;;;;7329512;32;20569;-60
2022/07/23 00:42:38;;;;;;;43.75;23.95;;;15.70;99.90;;;;;;7330201;32;20548;-60
2022/07/23 00:46:56;;;;;;;40.97;23.90;;;15.70;99.90;;;;;;7330840;32;20330;-60
2022/07/23 00:50:58;;;;;;;38.80;24.48;;;15.70;99.90;;;;;;7329564;32;20842;-60
2022/07/23 00:54:59;;;;;;;38.83;24.48;;;15.70;99.90;;;;;;7341310;32;20135;-61
2022/07/23 00:59:01;;;;;;;49.25;26.08;;;15.80;99.90;;;;;;7335359;32;20190;-61
2022/07/23 01:03:04;;;;;;;35.45;21.92;;;15.70;99.90;;;;;;7330129;32;20234;-61
2022/07/23 01:07:13;;;;;;;30.95;21.67;;;15.80;99.90;;;;;;7329650;32;20213;-61
2022/07/23 01:11:15;;;;;;;31.35;22.13;;;15.80;99.90;;;;;;7330700;32;20100;-61
2022/07/23 01:15:17;;;;;;;35.13;21.27;;;15.80;99.90;;;;;;7335073;32;20419;-61
2022/07/23 01:19:19;;;;;;;35.05;21.25;;;15.80;99.90;;;;;;7334272;32;20123;-61
2022/07/23 01:23:20;;;;;;;32.03;20.40;;;15.80;99.90;;;;;;7334616;32;20135;-61
2022/07/23 01:27:22;;;;;;;32.80;20.75;;;15.80;99.90;;;;;;7334585;32;20501;-61
2022/07/23 01:31:24;;;;;;;32.75;20.92;;;15.70;99.90;;;;;;7333298;32;20561;-61
2022/07/23 01:35:31;;;;;;;29.60;19.02;;;15.80;99.90;;;;;;7334262;32;20100;-61
2022/07/23 01:39:33;;;;;;;26.40;17.92;;;15.70;99.90;;;;;;7333137;32;20154;-61
2022/07/23 01:43:35;;;;;;;30.00;19.70;;;15.70;99.90;;;;;;7333486;32;20108;-61
2022/07/23 01:47:37;;;;;;;28.55;18.62;;;15.80;99.90;;;;;;7333283;32;20100;-61
2022/07/23 01:51:59;;;;;;;31.20;19.37;;;15.70;99.90;;;;;;7332275;32;20465;-61
2022/07/23 01:56:01;;;;;;;27.10;18.77;;;15.60;99.90;;;;;;7351079;32;20152;-61
2022/07/23 02:00:03;;;;;;;24.17;17.75;;;15.60;99.90;;;;;;7331733;32;20127;-61
2022/07/23 02:04:05;;;;;;;27.65;18.33;;;15.50;99.90;;;;;;7333638;32;20099;-61
2022/07/23 02:08:07;;;;;;;27.10;17.52;;;15.50;99.90;;;;;;7332681;32;20177;-61
2022/07/23 02:12:08;;;;;;;26.30;17.48;;;15.50;99.90;;;;;;7333678;32;20171;-61
2022/07/23 02:16:10;;;;;;;26.30;17.87;;;15.40;99.90;;;;;;7333248;32;20124;-61
2022/07/23 02:20:12;;;;;;;30.27;18.00;;;15.30;99.90;;;;;;7332608;32;20107;-61
2022/07/23 02:24:14;;;;;;;23.35;16.80;;;15.30;99.90;;;;;;7330891;32;20119;-61
2022/07/23 02:28:16;;;;;;;20.17;14.57;;;15.20;99.90;;;;;;7357402;32;20193;-62
2022/07/23 02:32:17;;;;;;;22.70;16.62;;;15.30;99.90;;;;;;7358482;32;20159;-61
2022/07/23 02:36:19;;;;;;;26.08;17.83;;;15.20;99.90;;;;;;7357459;32;20151;-61
2022/07/23 02:40:21;;;;;;;29.75;19.05;;;15.10;99.90;;;;;;7357283;32;20172;-61
2022/07/23 02:44:23;;;;;;;27.13;18.98;;;15.10;99.90;;;;;;7357947;32;20201;-61
2022/07/23 02:48:24;;;;;;;27.52;18.25;;;15.00;99.90;;;;;;7357659;32;20573;-61
2022/07/23 02:52:26;;;;;;;24.63;17.12;;;15.00;99.90;;;;;;7358279;32;20247;-61
2022/07/23 02:56:28;;;;;;;21.37;15.80;;;15.00;99.90;;;;;;7337846;32;20412;-61
2022/07/23 03:00:30;;;;;;;22.45;16.87;;;15.00;99.90;;;;;;7330125;32;20573;-61
2022/07/23 03:04:31;;;;;;;25.92;17.10;;;14.80;99.90;;;;;;7332450;32;20120;-61
2022/07/23 03:08:33;;;;;;;22.83;16.73;;;14.80;99.90;;;;;;7337424;32;20500;-61
2022/07/23 03:12:35;;;;;;;21.83;15.40;;;14.70;99.90;;;;;;7332423;32;20167;-61
2022/07/23 03:16:36;;;;;;;21.90;16.77;;;14.60;99.90;;;;;;7331952;32;20194;-61
2022/07/23 03:20:38;;;;;;;22.98;16.58;;;14.60;99.90;;;;;;7331268;32;20104;-61
2022/07/23 03:24:55;;;;;;;20.50;14.60;;;14.50;99.90;;;;;;7331689;32;20126;-61
2022/07/23 03:28:57;;;;;;;22.50;16.40;;;14.40;99.90;;;;;;7331045;32;20178;-61
2022/07/23 03:32:59;;;;;;;22.77;15.98;;;14.30;99.90;;;;;;7331724;32;20119;-61
2022/07/23 03:37:01;;;;;;;21.20;15.40;;;14.30;99.90;;;;;;7331321;32;20119;-61
2022/07/23 03:41:03;;;;;;;21.15;15.27;;;14.20;99.90;;;;;;7330868;32;20475;-61
2022/07/23 03:45:06;;;;;;;24.27;14.65;;;14.20;99.90;;;;;;7331578;32;20189;-60
2022/07/23 03:49:08;;;;;;;21.45;15.30;;;14.10;99.90;;;;;;7330871;32;20636;-61
2022/07/23 03:53:10;;;;;;;37.22;16.35;;;14.00;99.90;;;;;;7330778;32;20559;-61
2022/07/23 03:57:12;;;;;;;21.80;15.95;;;14.00;99.90;;;;;;7338558;32;20191;-61
2022/07/23 04:01:14;;;;;;;20.50;15.40;;;14.00;99.90;;;;;;7355667;32;20107;-61
2022/07/23 04:05:15;;;;;;;28.80;16.37;;;13.90;99.90;;;;;;7356855;32;20186;-61
2022/07/23 04:09:17;;;;;;;24.67;14.13;;;13.90;99.90;;;;;;7355934;32;20552;-61
2022/07/23 04:13:19;;;;;;;24.95;14.35;;;13.90;99.90;;;;;;7356777;32;20100;-60
2022/07/23 04:17:21;;;;;;;16.60;13.77;;;13.80;99.90;;;;;;7356799;32;20103;-61
2022/07/23 04:21:23;;;;;;;16.10;12.90;;;13.80;99.90;;;;;;7356227;32;20184;-61
2022/07/23 04:25:25;;;;;;;18.58;13.98;;;13.80;99.90;;;;;;7356168;32;20181;-61
2022/07/23 04:29:26;;;;;;;18.08;13.88;;;13.70;99.90;;;;;;7355311;32;20404;-61
2022/07/23 04:33:28;;;;;;;19.10;14.05;;;13.70;99.90;;;;;;7355732;32;20175;-61
2022/07/23 04:37:30;;;;;;;16.33;13.30;;;13.80;99.90;;;;;;7355365;32;20123;-61
2022/07/23 04:41:32;;;;;;;16.87;13.50;;;13.80;99.90;;;;;;7355817;32;20186;-61
2022/07/23 04:45:34;;;;;;;17.35;14.32;;;13.80;99.90;;;;;;7356086;32;20107;-62
2022/07/23 04:49:36;;;;;;;18.42;14.27;;;13.90;99.90;;;;;;7360374;32;20212;-60
2022/07/23 04:53:38;;;;;;;19.58;14.43;;;14.00;99.90;;;;;;7357756;32;20188;-60
2022/07/23 04:57:40;;;;;;;18.98;15.75;;;14.10;99.90;;;;;;7345259;32;20095;-60
2022/07/23 05:01:42;;;;;;;17.52;15.05;;;14.40;99.90;;;;;;7355283;32;20112;-63
2022/07/23 05:05:43;;;;;;;14.40;12.35;;;14.70;99.90;;;;;;7355372;32;20126;-60
2022/07/23 05:09:45;;;;;;;14.90;13.05;;;15.00;99.90;;;;;;7359640;32;20182;-60
2022/07/23 05:13:47;;;;;;;20.35;13.02;;;15.50;99.90;;;;;;7360451;32;20209;-60
2022/07/23 05:17:49;;;;;;;13.85;12.35;;;15.80;99.90;;;;;;7359628;32;20168;-60
2022/07/23 05:21:50;;;;;;;15.02;12.80;;;16.10;99.90;;;;;;7360507;32;20111;-60
2022/07/23 05:25:52;;;;;;;15.13;11.82;;;16.50;99.90;;;;;;7360501;32;20186;-60
2022/07/23 05:29:54;;;;;;;15.95;12.55;;;16.40;99.90;;;;;;7359189;32;20108;-61
2022/07/23 05:33:56;;;;;;;16.35;13.25;;;16.40;99.90;;;;;;7359994;32;20172;-61
2022/07/23 05:37:57;;;;;;;21.25;15.23;;;16.20;99.90;;;;;;7358539;32;20265;-60
2022/07/23 05:41:59;;;;;;;22.15;14.85;;;15.90;99.90;;;;;;7359649;32;20119;-60
2022/07/23 05:46:01;;;;;;;24.20;19.25;;;15.80;99.90;;;;;;7359290;32;20528;-60
2022/07/23 05:50:04;;;;;;;29.45;20.80;;;15.80;99.90;;;;;;7358405;32;20780;-61
2022/07/23 05:54:05;;;;;;;30.75;22.95;;;15.70;99.90;;;;;;7354431;32;20123;-60
2022/07/23 05:58:08;;;;;;;37.28;24.08;;;15.80;99.90;;;;;;7345041;32;20226;-60
2022/07/23 06:02:10;;;;;;;35.55;24.50;;;15.70;99.90;;;;;;7359450;32;20314;-60
2022/07/23 06:06:12;;;;;;;34.50;24.58;;;15.90;99.90;;;;;;7358803;32;20103;-61
2022/07/23 06:10:14;;;;;;;37.20;25.08;;;15.80;99.90;;;;;;7357969;32;20168;-60
2022/07/23 06:14:15;;;;;;;39.15;26.45;;;15.90;99.90;;;;;;7358529;32;20103;-61
2022/07/23 06:18:17;;;;;;;37.58;25.58;;;16.10;99.90;;;;;;7357683;32;20095;-61
2022/07/23 06:22:19;;;;;;;33.10;23.08;;;16.20;99.90;;;;;;7358545;32;20190;-61
2022/07/23 06:26:20;;;;;;;31.77;23.02;;;16.50;99.90;;;;;;7358956;32;20190;-61
2022/07/23 06:30:22;;;;;;;28.35;21.20;;;16.70;99.90;;;;;;7357376;32;20425;-60
2022/07/23 06:34:25;;;;;;;27.40;21.80;;;17.10;99.90;;;;;;7358108;32;20177;-65
2022/07/23 06:38:27;;;;;;;29.85;22.35;;;17.20;99.90;;;;;;7356999;32;20686;-64
2022/07/23 06:42:29;;;;;;;24.30;19.75;;;17.50;99.90;;;;;;7356868;32;20198;-65
2022/07/23 06:46:31;;;;;;;24.70;18.75;;;18.40;99.90;;;;;;7357674;32;20134;-64
2022/07/23 06:50:33;;;;;;;23.10;17.15;;;19.00;99.90;;;;;;7356720;32;20174;-64
2022/07/23 06:54:34;;;;;;;23.42;17.85;;;18.80;99.90;;;;;;7349532;32;20176;-64
2022/07/23 06:58:36;;;;;;;21.87;15.98;;;18.80;99.90;;;;;;7347707;32;20493;-64
2022/07/23 07:02:38;;;;;;;20.00;14.48;;;18.90;99.90;;;;;;7357250;32;20268;-65
2022/07/23 07:06:40;;;;;;;19.73;15.10;;;19.50;99.90;;;;;;7357957;32;20111;-64
2022/07/23 07:10:42;;;;;;;14.73;13.00;;;19.50;99.90;;;;;;7356129;32;20103;-64
2022/07/23 07:14:44;;;;;;;16.95;12.68;;;19.50;99.90;;;;;;7356937;32;20514;-65
2022/07/23 07:18:45;;;;;;;20.52;13.30;;;19.90;99.90;;;;;;7356547;32;20160;-65
2022/07/23 07:22:48;;;;;;;16.92;14.32;;;20.00;99.90;;;;;;7356962;32;20166;-64
2022/07/23 07:26:49;;;;;;;19.33;13.98;;;19.40;99.90;;;;;;7357619;32;20676;-64
2022/07/23 07:30:51;;;;;;;24.60;16.80;;;19.50;99.90;;;;;;7355863;32;20123;-65
2022/07/23 07:34:53;;;;;;;20.58;15.30;;;19.50;99.90;;;;;;7355941;32;20112;-64
2022/07/23 07:38:55;;;;;;;21.10;15.50;;;20.30;99.90;;;;;;7356181;32;20141;-64
2022/07/23 07:42:56;;;;;;;19.12;13.90;;;20.30;99.90;;;;;;7356409;32;20441;-65
2022/07/23 07:46:58;;;;;;;18.45;14.38;;;20.30;99.90;;;;;;7356467;32;20296;-65
2022/07/23 07:51:00;;;;;;;19.83;13.48;;;20.40;99.90;;;;;;7355574;32;20780;-64
2022/07/23 07:55:06;;;;;;;18.42;13.18;;;20.30;99.90;;;;;;7344844;32;20176;-67
2022/07/23 07:59:08;;;;;;;15.05;12.98;;;19.80;99.90;;;;;;7350428;32;20226;-68
2022/07/23 08:03:11;;;;;;;18.15;14.85;;;19.50;99.90;;;;;;7355289;32;20416;-67
2022/07/23 08:07:13;;;;;;;19.40;13.77;;;19.30;99.90;;;;;;7355877;32;20156;-67
2022/07/23 08:11:15;;;;;;;19.52;15.13;;;19.20;99.90;;;;;;7355980;32;20104;-67
2022/07/23 08:15:19;;;;;;;18.95;15.02;;;19.00;99.90;;;;;;7356239;32;20111;-66
2022/07/23 08:19:21;;;;;;;20.90;15.77;;;19.00;99.90;;;;;;7355190;32;20152;-67
2022/07/23 08:23:23;;;;;;;20.90;16.58;;;19.30;99.90;;;;;;7356040;32;20187;-67
2022/07/23 08:27:30;;;;;;;18.60;16.73;;;19.70;99.90;;;;;;7355669;32;20100;-66
2022/07/23 08:31:32;;;;;;;22.37;17.70;;;20.00;99.90;;;;;;7355653;32;20183;-67
2022/07/23 08:35:37;;;;;;;24.33;19.55;;;20.30;99.90;;;;;;7355279;32;20250;-67
2022/07/23 08:39:39;;;;;;;23.42;19.73;;;20.70;99.90;;;;;;7355003;32;20210;-67
2022/07/23 08:43:40;;;;;;;23.87;21.35;;;20.80;99.90;;;;;;7355613;32;20187;-67
2022/07/23 08:47:44;;;;;;;27.02;24.23;;;21.20;99.90;;;;;;7354151;32;20099;-67
2022/07/23 08:51:52;;;;;;;25.80;23.20;;;21.60;99.90;;;;;;7355666;32;20447;-66
2022/07/23 08:55:58;;;;;;;24.80;21.52;;;22.00;99.90;;;;;;7338509;32;20115;-67
2022/07/23 09:00:00;;;;;;;27.50;24.73;;;22.70;99.90;;;;;;7354079;32;20126;-67
2022/07/23 09:04:02;;;;;;;31.30;21.85;;;23.20;99.90;;;;;;7354044;32;20193;-67
2022/07/23 09:08:05;;;;;;;21.12;17.05;;;23.60;99.90;;;;;;7354667;32;20492;-67
2022/07/23 09:12:09;;;;;;;24.67;18.85;;;24.20;99.90;;;;;;7355735;32;20096;-67
2022/07/23 09:16:17;;;;;;;22.85;18.23;;;24.30;99.90;;;;;;7355588;32;20171;-67
2022/07/23 09:20:18;;;;;;;20.17;18.08;;;24.80;99.90;;;;;;7354334;32;20922;-67
2022/07/23 09:24:20;;;;;;;25.40;19.85;;;25.20;99.90;;;;;;7355676;32;20518;-67
2022/07/23 09:28:22;;;;;;;25.70;22.40;;;25.70;99.90;;;;;;7354886;32;20190;-66
2022/07/23 09:32:24;;;;;;;18.73;13.73;;;26.10;99.90;;;;;;7356938;32;20214;-68
2022/07/23 09:36:29;;;;;;;20.27;16.85;;;26.00;99.90;;;;;;7339015;32;20175;-69
2022/07/23 09:40:31;;;;;;;21.83;17.55;;;25.70;99.90;;;;;;7334127;32;20139;-69
2022/07/23 09:44:41;;;;;;;18.75;15.35;;;24.80;99.90;;;;;;7334206;32;20107;-68
2022/07/23 09:48:43;;;;;;;19.42;15.02;;;26.30;99.90;;;;;;7334421;32;20099;-68
2022/07/23 09:52:48;;;;;;;11.98;9.68;;;26.90;99.90;;;;;;7334034;32;20164;-67
2022/07/23 09:56:51;;;;;;;18.90;9.63;;;27.00;99.90;;;;;;7338886;32;20512;-67
2022/07/23 10:00:53;;;;;;;12.32;8.02;;;26.20;99.90;;;;;;7358731;32;20488;-67
2022/07/23 10:04:56;;;;;;;13.55;10.75;;;25.80;99.90;;;;;;7358760;32;20103;-68
2022/07/23 10:08:59;;;;;;;20.27;18.15;;;25.20;99.90;;;;;;7358592;32;20342;-67
2022/07/23 10:17:03;;;;;;;9.23;6.32;;;24.80;99.90;;;;;;7358694;32;20111;-67
2022/07/23 10:21:07;;;;;;;8.02;3.67;;;25.10;99.90;;;;;;7358089;32;20768;-67
2022/07/23 10:25:32;;;;;;;6.40;3.25;;;25.50;99.90;;;;;;7358563;32;20270;-67
2022/07/23 10:29:52;;;;;;;7.47;2.62;;;25.90;99.90;;;;;;7358092;32;20100;-67
2022/07/23 10:34:14;;;;;;;7.18;4.28;;;26.50;99.90;;;;;;7358180;32;20186;-67
2022/07/23 10:38:27;;;;;;;9.70;3.50;;;25.90;99.90;;;;;;7357790;32;20186;-67
2022/07/23 10:42:35;;;;;;;7.05;3.22;;;26.10;99.90;;;;;;7359037;32;20240;-67
2022/07/23 10:46:57;;;;;;;6.25;2.70;;;25.90;99.90;;;;;;7357720;32;20133;-67
2022/07/23 10:51:14;;;;;;;8.20;3.60;;;26.00;99.90;;;;;;7357276;32;20212;-68
2022/07/23 10:55:16;;;;;;;5.55;2.95;;;25.50;99.90;;;;;;7345959;32;20299;-67
2022/07/23 10:59:23;;;;;;;4.82;2.75;;;25.60;99.90;;;;;;7353369;32;20115;-67
2022/07/23 11:03:36;;;;;;;5.95;2.75;;;25.60;99.90;;;;;;7356089;32;20115;-67
2022/07/23 11:08:03;;;;;;;8.27;3.17;;;25.10;99.90;;;;;;7357432;32;20171;-67
2022/07/23 11:12:21;;;;;;;5.43;2.65;;;25.20;99.90;;;;;;7352019;32;20138;-67
2022/07/23 11:16:23;;;;;;;;;;;24.70;99.90;;;;;;7344783;32;20307;-67
2022/07/23 11:20:26;;;;;;;4.90;2.50;;;24.90;99.90;;;;;;7335495;32;20033;-66
2022/07/23 11:24:28;;;;;;;4.20;2.33;;;25.30;99.90;;;;;;7331586;32;20146;-67
2022/07/23 11:28:29;;;;;;;12.02;3.10;;;25.00;99.90;;;;;;7331557;32;20255;-68
2022/07/23 11:32:35;;;;;;;4.15;2.20;;;24.50;99.90;;;;;;7332013;32;20563;-68
2022/07/23 11:36:58;;;;;;;7.23;1.93;;;24.80;99.90;;;;;;7331875;32;20134;-67
2022/07/23 11:41:00;;;;;;;4.55;1.80;;;25.20;99.90;;;;;;7331196;32;20275;-67
2022/07/23 11:45:03;;;;;;;5.80;1.62;;;25.10;99.90;;;;;;7331657;32;20168;-67
2022/07/23 11:49:05;;;;;;;2.50;1.40;;;25.40;99.90;;;;;;7331066;32;20107;-67
2022/07/23 11:53:07;;;;;;;2.65;1.37;;;25.40;99.90;;;;;;7331283;32;20176;-67
2022/07/23 11:57:08;;;;;;;3.80;1.30;;;25.30;99.90;;;;;;7338151;32;20172;-67
2022/07/23 12:01:13;;;;;;;3.60;2.03;;;25.20;99.90;;;;;;7356027;32;20111;-67
2022/07/23 12:05:21;;;;;;;2.95;1.40;;;25.40;99.90;;;;;;7355044;32;20119;-68
2022/07/23 12:09:23;;;;;;;3.30;1.40;;;25.50;99.90;;;;;;7355496;32;20474;-68
2022/07/23 12:13:25;;;;;;;3.58;1.55;;;25.50;99.90;;;;;;7356312;32;20167;-67
2022/07/23 12:17:33;;;;;;;4.45;1.92;;;25.60;99.90;;;;;;7356637;32;20107;-68
2022/07/23 12:21:35;;;;;;;5.65;2.00;;;25.50;98.60;;;;;;7355980;32;20516;-68
2022/07/23 12:25:40;;;;;;;4.62;2.50;;;25.60;99.90;;;;;;7355594;32;20789;-67
2022/07/23 12:29:42;;;;;;;8.45;2.72;;;25.60;99.30;;;;;;7355492;32;20130;-67
2022/07/23 12:33:44;;;;;;;3.83;1.87;;;25.60;98.80;;;;;;7355071;32;20488;-68
2022/07/23 12:37:47;;;;;;;3.30;1.62;;;25.60;99.90;;;;;;7355162;32;20115;-67
2022/07/23 12:41:53;;;;;;;3.22;1.80;;;25.60;99.90;;;;;;7355602;32;20565;-68
2022/07/23 12:46:06;;;;;;;3.03;1.80;;;25.30;98.20;;;;;;7355862;32;20214;-67
2022/07/23 12:50:28;;;;;;;5.82;2.20;;;25.40;99.10;;;;;;7354666;32;20181;-67
2022/07/23 12:54:29;;;;;;;3.15;1.95;;;25.60;99.90;;;;;;7348229;32;20257;-67
2022/07/23 12:58:43;;;;;;;3.75;1.83;;;25.50;99.70;;;;;;7329534;32;20509;-67
2022/07/23 13:02:46;;;;;;;3.85;2.00;;;25.40;99.90;;;;;;7329242;32;20126;-68
2022/07/23 13:06:51;;;;;;;3.40;2.08;;;25.50;99.00;;;;;;7331171;32;20520;-66
2022/07/23 13:10:53;;;;;;;6.80;2.33;;;25.30;98.70;;;;;;7334385;32;20497;-67
2022/07/23 13:14:56;;;;;;;4.97;2.17;;;25.20;99.90;;;;;;7335386;32;20168;-67
2022/07/23 13:18:59;;;;;;;7.10;2.58;;;25.50;99.90;;;;;;7334517;32;20112;-67
2022/07/23 13:23:01;;;;;;;4.40;1.95;;;25.70;99.00;;;;;;7335611;32;20150;-67
2022/07/23 13:27:04;;;;;;;3.47;2.22;;;25.70;99.60;;;;;;7344842;32;20108;-68
2022/07/23 13:31:07;;;;;;;4.93;2.53;;;26.00;98.80;;;;;;7346925;32;20505;-67
2022/07/23 13:35:09;;;;;;;3.60;2.10;;;25.60;99.90;;;;;;7335185;32;20127;-67
2022/07/23 13:39:12;;;;;;;3.83;2.50;;;25.30;99.90;;;;;;7344828;32;20295;-68
2022/07/23 13:43:16;;;;;;;5.30;2.50;;;25.40;99.90;;;;;;7351836;32;20141;-67
2022/07/23 13:47:23;;;;;;;5.43;2.78;;;25.80;99.50;;;;;;7350612;32;20115;-68
2022/07/23 13:51:25;;;;;;;4.20;2.20;;;26.30;98.40;;;;;;7333636;32;20158;-67
2022/07/23 13:55:30;;;;;;;6.72;2.87;;;26.90;96.30;;;;;;7334331;32;20103;-68
2022/07/23 13:59:33;;;;;;;4.12;2.25;;;26.90;96.80;;;;;;7356425;32;20111;-68
2022/07/23 14:03:34;;;;;;;5.57;2.65;;;27.00;96.60;;;;;;7358881;32;20176;-68
2022/07/23 14:07:37;;;;;;;4.55;2.58;;;27.30;94.30;;;;;;7359192;32;20103;-67
2022/07/23 14:11:39;;;;;;;4.60;2.37;;;27.10;94.00;;;;;;7360432;32;20179;-68
2022/07/23 14:15:42;;;;;;;4.43;2.50;;;26.90;95.90;;;;;;7358410;32;20134;-68
2022/07/23 14:19:44;;;;;;;5.20;2.58;;;27.00;95.60;;;;;;7359257;32;20111;-67
2022/07/23 14:23:46;;;;;;;3.83;2.28;;;27.20;94.70;;;;;;7359711;32;20187;-68
2022/07/23 14:27:48;;;;;;;5.62;2.20;;;27.30;95.50;;;;;;7359038;32;20134;-67
2022/07/23 14:31:50;;;;;;;4.10;1.90;;;27.70;94.30;;;;;;7359493;32;20195;-67
2022/07/23 14:35:53;;;;;;;3.95;2.00;;;28.40;93.30;;;;;;7359581;32;20171;-67
2022/07/23 14:39:54;;;;;;;5.70;2.28;;;28.40;91.60;;;;;;7357597;32;20302;-67
2022/07/23 14:43:57;;;;;;;2.55;2.20;;;28.50;90.50;;;;;;7358432;32;20122;-68
2022/07/23 14:47:59;;;;;;;3.75;2.20;;;28.70;88.00;;;;;;7357504;32;20170;-68
2022/07/23 14:52:04;;;;;;;3.72;1.90;;;28.20;89.10;;;;;;7357894;32;20125;-68
2022/07/23 14:56:06;;;;;;;3.85;2.00;;;27.20;91.50;;;;;;7340210;32;20495;-67
2022/07/23 15:00:09;;;;;;;5.62;2.00;;;27.20;91.80;;;;;;7357653;32;20166;-66
2022/07/23 15:04:11;;;;;;;4.32;2.50;;;26.80;93.00;;;;;;7356715;32;20214;-67
2022/07/23 15:08:33;;;;;;;6.30;2.58;;;26.60;91.60;;;;;;7356341;32;20145;-67
2022/07/23 15:12:35;;;;;;;4.15;2.55;;;26.80;92.10;;;;;;7357146;32;20136;-67
2022/07/23 15:16:38;;;;;;;5.65;2.20;;;26.50;93.00;;;;;;7357560;32;20172;-67
2022/07/23 15:20:41;;;;;;;3.45;2.30;;;26.60;93.30;;;;;;7355986;32;20166;-67
2022/07/23 15:24:43;;;;;;;5.15;2.58;;;26.60;93.70;;;;;;7356408;32;20133;-67
2022/07/23 15:28:45;;;;;;;5.70;2.95;;;26.40;94.00;;;;;;7355059;32;20176;-67
2022/07/23 15:32:46;;;;;;;4.60;2.78;;;25.80;93.00;;;;;;7355213;32;20396;-67
2022/07/23 15:36:48;;;;;;;6.07;3.28;;;25.60;95.30;;;;;;7356055;32;20127;-67
2022/07/23 15:40:50;;;;;;;3.60;2.58;;;25.40;95.50;;;;;;7355070;32;20133;-66
2022/07/23 15:44:52;;;;;;;6.55;2.55;;;25.20;94.80;;;;;;7355566;32;20565;-67
2022/07/23 15:48:54;;;;;;;5.60;2.45;;;24.80;95.50;;;;;;7355298;32;20256;-67
2022/07/23 15:52:56;;;;;;;4.18;2.80;;;24.80;95.20;;;;;;7355912;32;20111;-66
2022/07/23 15:56:58;;;;;;;5.37;3.15;;;24.60;96.30;;;;;;7348956;32;20112;-67
2022/07/23 16:01:07;;;;;;;4.95;2.40;;;24.50;97.00;;;;;;7328951;32;20269;-67
2022/07/23 16:05:10;;;;;;;3.28;2.17;;;24.50;97.00;;;;;;7328099;32;20436;-67
2022/07/23 16:09:12;;;;;;;3.65;2.40;;;24.40;97.60;;;;;;7329279;32;20149;-67
2022/07/23 16:13:20;;;;;;;3.25;2.50;;;24.40;97.30;;;;;;7329698;32;20452;-67
2022/07/23 16:17:22;;;;;;;3.53;2.53;;;24.50;97.80;;;;;;7329827;32;20275;-66
2022/07/23 16:21:24;;;;;;;4.82;2.53;;;24.50;97.20;;;;;;7328810;32;20174;-67
2022/07/23 16:25:26;;;;;;;6.85;3.15;;;24.40;96.70;;;;;;7329855;32;20772;-66
2022/07/23 16:29:28;;;;;;;4.60;2.60;;;24.40;97.30;;;;;;7335118;32;20119;-67
2022/07/23 16:33:30;;;;;;;3.00;2.00;;;24.10;96.10;;;;;;7328838;32;20147;-67
2022/07/23 16:37:31;;;;;;;4.75;2.30;;;24.40;97.10;;;;;;7328589;32;20354;-66
2022/07/23 16:41:34;;;;;;;3.55;2.30;;;24.30;97.90;;;;;;7330043;32;20169;-67
2022/07/23 16:45:36;;;;;;;3.83;2.33;;;24.50;96.20;;;;;;7334556;32;20115;-67
2022/07/23 16:49:37;;;;;;;2.45;1.92;;;24.30;97.30;;;;;;7333461;32;20546;-67
2022/07/23 16:53:39;;;;;;;3.47;2.42;;;24.20;98.30;;;;;;7334616;32;20172;-67
2022/07/23 16:57:41;;;;;;;4.78;2.40;;;24.00;98.80;;;;;;7344070;32;20225;-66
2022/07/23 17:01:43;;;;;;;3.20;2.00;;;24.00;99.30;;;;;;7359710;32;20175;-66
2022/07/23 17:05:45;;;;;;;5.37;2.20;;;24.10;99.60;;;;;;7358350;32;20507;-67
2022/07/23 17:09:47;;;;;;;2.83;2.08;;;24.10;99.40;;;;;;7358972;32;20115;-67
2022/07/23 17:13:48;;;;;;;5.05;2.60;;;24.20;98.90;;;;;;7355562;32;20123;-67
2022/07/23 17:17:50;;;;;;;3.75;2.30;;;24.10;99.50;;;;;;7334299;32;20151;-67
2022/07/23 17:21:52;;;;;;;3.90;1.90;;;24.10;98.70;;;;;;7336518;32;20650;-66
2022/07/23 17:25:53;;;;;;;3.33;2.22;;;24.10;99.00;;;;;;7333649;32;20130;-67
2022/07/23 17:29:56;;;;;;;3.90;2.15;;;24.00;98.80;;;;;;7332656;32;20134;-67
2022/07/23 17:33:57;;;;;;;7.55;2.58;;;23.80;98.60;;;;;;7333528;32;20116;-65
2022/07/23 17:38:02;;;;;;;4.78;2.20;;;23.70;99.60;;;;;;7332661;32;20499;-65
2022/07/23 17:42:04;;;;;;;4.15;2.17;;;23.70;99.90;;;;;;7333433;32;20146;-66
2022/07/23 17:46:06;;;;;;;2.65;2.08;;;23.70;99.90;;;;;;7333418;32;20168;-67
2022/07/23 17:50:09;;;;;;;4.10;1.95;;;23.70;99.90;;;;;;7332686;32;20140;-67
2022/07/23 17:54:11;;;;;;;3.78;2.47;;;23.60;99.90;;;;;;7332776;32;20297;-67
2022/07/23 17:58:13;;;;;;;4.22;2.50;;;23.50;99.90;;;;;;7346192;32;20182;-67
2022/07/23 18:02:15;;;;;;;3.10;2.03;;;23.40;99.90;;;;;;7356622;32;20133;-67
2022/07/23 18:06:17;;;;;;;4.80;2.42;;;23.50;99.90;;;;;;7358685;32;20143;-66
2022/07/23 18:10:20;;;;;;;4.60;2.55;;;23.20;99.90;;;;;;7357599;32;20543;-66
2022/07/23 18:14:21;;;;;;;3.28;2.03;;;23.10;99.90;;;;;;7358191;32;20224;-65
2022/07/23 18:18:24;;;;;;;4.85;2.20;;;23.10;99.90;;;;;;7358198;32;20573;-66
2022/07/23 18:22:39;;;;;;;4.40;2.20;;;23.10;99.90;;;;;;7358905;32;20103;-67
2022/07/23 18:26:41;;;;;;;2.47;2.00;;;23.00;99.90;;;;;;7357995;32;20107;-66
2022/07/23 18:30:43;;;;;;;5.68;2.50;;;23.00;99.90;;;;;;7356894;32;20154;-66
2022/07/23 18:34:44;;;;;;;3.47;2.20;;;22.80;99.90;;;;;;7358193;32;20487;-67
2022/07/23 18:38:47;;;;;;;3.45;2.15;;;22.60;99.90;;;;;;7357151;32;20181;-65
2022/07/23 18:42:56;;;;;;;7.93;2.87;;;22.40;99.90;;;;;;7357610;32;20100;-66
2022/07/23 18:46:58;;;;;;;3.42;2.70;;;22.20;99.90;;;;;;7357579;32;20114;-67
2022/07/23 18:51:00;;;;;;;5.95;2.60;;;21.90;99.90;;;;;;7357790;32;20111;-66
2022/07/23 18:55:04;;;;;;;5.45;2.87;;;21.80;99.90;;;;;;7347927;32;20278;-66
2022/07/23 18:59:06;;;;;;;7.15;2.70;;;21.50;99.90;;;;;;7352711;32;20479;-68
2022/07/23 19:03:21;;;;;;;7.93;2.78;;;21.20;99.90;;;;;;7358409;32;20511;-67
2022/07/23 19:07:23;;;;;;;6.18;2.97;;;21.00;99.90;;;;;;7356818;32;20585;-67
2022/07/23 19:11:25;;;;;;;10.95;3.20;;;20.80;99.90;;;;;;7356886;32;20172;-67
2022/07/23 19:15:27;;;;;;;8.32;3.37;;;20.50;99.90;;;;;;7357610;32;20271;-67
2022/07/23 19:19:29;;;;;;;7.82;3.70;;;20.40;99.90;;;;;;7356790;32;20111;-66
2022/07/23 19:23:32;;;;;;;7.82;3.17;;;20.10;99.90;;;;;;7357451;32;20167;-67
2022/07/23 19:27:35;;;;;;;7.97;3.47;;;19.90;99.90;;;;;;7356139;32;20123;-66
2022/07/23 19:31:37;;;;;;;5.40;3.20;;;19.70;99.90;;;;;;7356147;32;20163;-67
2022/07/23 19:35:39;;;;;;;6.35;3.35;;;19.60;99.90;;;;;;7356789;32;20542;-65
2022/07/23 19:39:44;;;;;;;11.05;3.92;;;19.40;99.90;;;;;;7356303;32;20525;-67
2022/07/23 19:43:46;;;;;;;8.63;4.18;;;19.20;99.90;;;;;;7356584;32;20172;-67
2022/07/23 19:47:48;;;;;;;9.18;4.22;;;19.00;99.90;;;;;;7355588;32;20137;-64
2022/07/23 19:51:56;;;;;;;6.32;3.70;;;18.90;99.90;;;;;;7355869;32;20129;-62
2022/07/23 19:55:57;;;;;;;11.30;4.30;;;18.60;99.90;;;;;;7340473;32;20108;-64
2022/07/23 19:59:59;;;;;;;6.45;4.00;;;18.50;99.90;;;;;;7355801;32;20163;-64
2022/07/23 20:04:03;;;;;;;8.18;4.22;;;18.40;99.90;;;;;;7354896;32;20162;-64
2022/07/23 20:08:05;;;;;;;7.95;3.80;;;18.20;99.90;;;;;;7354798;32;20246;-63
2022/07/23 20:12:08;;;;;;;7.45;4.68;;;18.10;99.90;;;;;;7357137;32;20158;-63
2022/07/23 20:16:09;;;;;;;8.35;4.03;;;18.00;99.90;;;;;;7356812;32;20480;-63
2022/07/23 20:20:12;;;;;;;8.57;4.30;;;17.90;99.90;;;;;;7355412;32;20115;-63
2022/07/23 20:24:17;;;;;;;7.53;3.95;;;17.80;99.90;;;;;;7356485;32;20111;-63
2022/07/23 20:28:19;;;;;;;11.02;5.05;;;17.60;99.90;;;;;;7353988;32;20238;-63
2022/07/23 20:32:22;;;;;;;9.43;4.65;;;17.50;99.90;;;;;;7356628;32;20279;-62
2022/07/23 20:36:24;;;;;;;7.12;4.10;;;17.40;99.90;;;;;;7356765;32;20179;-63
2022/07/23 20:40:26;;;;;;;6.85;4.35;;;17.30;99.90;;;;;;7355997;32;20122;-63
2022/07/23 20:44:27;;;;;;;8.35;4.12;;;17.20;99.90;;;;;;7355794;32;20131;-63
2022/07/23 20:48:29;;;;;;;8.57;4.40;;;17.10;99.90;;;;;;7355852;32;20182;-63
2022/07/23 20:52:31;;;;;;;10.45;4.95;;;17.00;99.90;;;;;;7355863;32;20111;-61
2022/07/23 20:56:33;;;;;;;7.65;4.28;;;16.90;99.90;;;;;;7338176;32;20107;-63